Portada
METAR-TAF:

METAR-TAF

Aeroports :

Kingston, Jamaica

latitud: 17-56N, longitud: 076-47W, altitud: 3 m

Observació

L'informe es va fer fa 28 minuts, a les 02:00 UTC
Vent 3 kt del Nord/Nord-Oest
Temperatura 27°C
Humitat 84%
Pressió 1015 hPa
Visibilitat 10 km o més
Escasses núvols a una alçada de 2200 ft, Cumulonimbus.

METAR: MKJP 220200Z 33003KT 9999 FEW022CB 27/24 Q1015

Hora: 21:28 (02:28 UTC)

Pronòstic

L'informe es va fer fa 3 hores i 13 minuts, a les 23:15 UTC
Pronòstic vàlid del 22 a les 00 UTC al 22 a les 24 UTC
Vent 5 kt del Nord
Visibilitat 10 km o més
Escasses núvols a una alçada de 2000 ft
Escasses núvols a una alçada de 2200 ft, Cumulonimbus.
Evolucionant progressivament
l' 22 a les 13 UTC al 22 a les 15 UTC
Vent 17 kt del Sud-Est
Visibilitat: 4000 m
Cel ennuvolat a una alçada de 1800 ft, Cumulonimbus.
tempesta, pluja

TAF: MKJP 212315Z 2200/2224 36005KT 9999 FEW020 FEW022CB BECMG 2213/2215 14017KT TEMP[O 2214/2222 4000 TSRA BKN018CB

Observacions i pronòstics meteorològics de més de 4000 aeroports (METAR i TAF).

Les estacions disponibles són els punts grocs i vermells al mapa.

Posi el ratolí al punt desitjat per veure el nom de l'estació.

Feu clic per veure les observacions i els pronòstics meteorològics.

Per canviar el mapa: feu clic els botons verds amb una creu de color negre per apropar; al botó verd amb un guió per allunyar la imatge; o en les fletxes verdes per a mapes adjacents.


METAR-TAF: